• Join FlightAware (Why Join?)
  • Login
  • US Flag 
11:51PM EDT


 

Airport Tracker/Info


-or-


 

Live Flight TrackerFlight Track Log ✈ AAL1459 ✈ 30-Jun-2013 ✈ KORD - KRNO

Flight Track Log - Related Links

Times and Time Zones

All times are in EDT time to prevent confusion due to time zone crossing. See the AAL1459 flight status page for this flight to view local times or setup timezone preferences in your user account.

Time Position Orientation Groundspeed Altitude Reporting Facility
EDT Latitude Longitude Course Direction KTS MPH feet Rate Location/Type
07:39PM 42.0000 -87.9500 270° West 165 190 1,600  Level Chicago TRACON
07:40PM 42.0500 -87.9833 334° Northwest 204 235 2,900 1,620 Climbing Chicago TRACON
07:41PM 42.1000 -88.0167 334° Northwest 259 298 4,900 1,680 Climbing Chicago TRACON
07:42PM 41.9667 -88.3711 270° West  Level FlightAware Approximate
07:42PM 42.1275 -88.0350 334° Northwest 251 289 5,500  Level Chicago Center
07:43PM 41.9667 -88.5282 270° West  Level FlightAware Approximate
07:43PM 42.1822 -88.1300 308° West 275 316 8,700  Level Chicago Center
07:44PM 41.9667 -88.6852 270° West  Level FlightAware Approximate
07:44PM 42.1622 -88.2344 256° West 303 349 11,000  Level Chicago Center
07:45PM 41.9668 -88.8423 270° West  Level FlightAware Approximate
07:45PM 42.1414 -88.3497 256° West 323 372 13,200  Level Chicago Center
07:46PM 42.1339 -88.4797 266° West 345 397 14,400 1,860 Climbing Chicago Center
07:47PM 42.1261 -88.6261 266° West 387 445 17,100 2,220 Climbing Chicago Center
07:48PM 42.1200 -88.7739 267° West 397 457 19,000 1,980 Climbing Chicago Center
07:49PM 42.1125 -88.9597 267° West 409 471 21,200 1,980 Climbing Chicago Center
07:50PM 42.1078 -89.1197 268° West 423 487 23,100 1,740 Climbing Chicago Center
07:51PM 42.1022 -89.2861 267° West 441 507 24,800 1,680 Climbing Chicago Center
07:52PM 42.0972 -89.4522 268° West 444 511 26,600 1,500 Climbing Chicago Center
07:53PM 42.0844 -89.6222 264° West 453 521 28,000 1,380 Climbing Chicago Center
07:54PM 42.0675 -89.8114 263° West 458 527 29,500 1,500 Climbing Chicago Center
07:55PM 42.0550 -89.9764 264° West 459 528 31,200 1,500 Climbing Chicago Center
07:56PM 42.0439 -90.1439 265° West 457 526 32,700 1,320 Climbing Chicago Center
07:57PM 42.0333 -90.3092 265° West 450 518 34,000 1,140 Climbing Chicago Center
07:58PM 42.0325 -90.4767 270° West 457 526 35,100 960 Climbing Chicago Center
07:59PM 42.0414 -90.6778 273° West 457 526 36,000 420 Climbing Chicago Center
08:00PM 42.0917 -90.8256 295° West 444 511 36,000  Level Chicago Center
08:02PM 42.1245 -91.0000 284° West  Level FlightAware Approximate
08:03PM 42.2431 -91.0814 284° West 442 509 36,000  Level Chicago Center
08:04PM 42.3186 -91.2083 309° West 437 503 36,000  Level Chicago Center
08:05PM 42.4103 -91.3597 309° West 437 503 36,000  Level Chicago Center
08:06PM 42.4325 -91.5211 281° West 442 509 36,000  Level Chicago Center
08:07PM 42.4361 -91.6883 272° West 441 507 36,000  Level Chicago Center
08:08PM 42.4419 -91.8542 273° West 442 509 36,000  Level Chicago Center
08:09PM 42.4483 -92.0194 273° West 440 506 36,000  Level Chicago Center
08:10PM 42.4531 -92.1839 272° West 440 506 36,000  Level Chicago Center
08:11PM 42.4583 -92.3817 272° West 440 506 36,000  Level Chicago Center
08:12PM 42.4622 -92.5467 272° West 443 510 36,000  Level Chicago Center
08:13PM 42.4664 -92.7128 272° West 443 510 36,000  Level Chicago Center
08:14PM 42.4706 -92.8775 272° West 443 510 36,000  Level Chicago Center
08:15PM 42.4736 -93.0414 272° West 440 506 36,000  Level Chicago Center
08:16PM 42.4764 -93.2061 271° West 440 506 36,000  Level Chicago Center
08:17PM 42.4822 -93.4014 272° West 437 503 36,000  Level Chicago Center
08:18PM 42.4831 -93.5631 270° West 433 498 36,000  Level Chicago Center
08:19PM 42.4858 -93.7258 271° West 435 501 36,000  Level Chicago Center
08:20PM 42.4889 -93.8875 272° West 435 501 36,000  Level Chicago Center
08:21PM 42.4928 -94.0822 272° West 435 501 36,000  Level Minneapolis Center
08:22PM 42.4950 -94.2456 271° West 436 502 36,000  Level Minneapolis Center
08:23PM 42.4969 -94.4089 271° West 437 503 36,000  Level Minneapolis Center
08:24PM 42.4972 -94.5722 270° West 438 504 36,000  Level Minneapolis Center
08:25PM 42.4986 -94.7633 271° West 430 495 36,000  Level Minneapolis Center
08:26PM 42.4997 -94.9256 271° West 431 496 36,000  Level Minneapolis Center
08:27PM 42.4997 -95.0886 270° West 433 498 36,000  Level Minneapolis Center
08:28PM 42.5006 -95.2489 270° West 430 495 36,000  Level Minneapolis Center
08:29PM 42.5008 -95.4097 270° West 431 496 36,000  Level Minneapolis Center
08:30PM 42.5008 -95.5669 270° West 423 487 36,000  Level Minneapolis Center
08:32PM 42.5008 -95.7192 270° West 410 472 36,000  Level Minneapolis Center
08:33PM 42.4992 -95.9381 269° West 416 479 36,000  Level Minneapolis Center
08:34PM 42.4981 -96.0928 269° West 414 476 36,000  Level Minneapolis Center
08:35PM 42.4972 -96.2506 270° West 418 481 36,000  Level Minneapolis Center
08:36PM 42.4964 -96.4089 270° West 422 486 36,000  Level Minneapolis Center
08:37PM 42.4961 -96.5661 270° West 420 483 36,000  Level Minneapolis Center
08:38PM 42.4936 -96.7233 269° West 420 483 36,000  Level Minneapolis Center
08:39PM 42.4917 -96.8794 269° West 417 480 36,000  Level Minneapolis Center
08:40PM 42.4892 -97.0667 269° West 416 479 36,000  Level Minneapolis Center
08:41PM 42.4872 -97.2242 269° West 417 480 36,000  Level Minneapolis Center
08:42PM 42.4836 -97.3825 268° West 420 483 36,000  Level Minneapolis Center
08:43PM 42.4819 -97.5381 269° West 417 480 36,000  Level Minneapolis Center
08:44PM 42.4783 -97.6961 268° West 419 482 36,000  Level Minneapolis Center
08:45PM 42.4758 -97.8650 269° West 418 481 36,000  Level Minneapolis Center
08:46PM 42.4725 -98.0208 268° West 416 479 36,000  Level Minneapolis Center
08:47PM 42.4692 -98.1767 268° West 416 479 36,000  Level Minneapolis Center
08:48PM 42.4647 -98.3342 268° West 418 481 36,000  Level Minneapolis Center
08:49PM 42.4608 -98.4911 268° West 418 481 36,000  Level Minneapolis Center
08:50PM 42.4564 -98.6786 268° West 418 481 36,000  Level Minneapolis Center
08:51PM 42.4517 -98.8347 268° West 417 480 36,000  Level Minneapolis Center
08:52PM 42.4472 -98.9594 267° West 416 479 36,000  Level Minneapolis Center
08:53PM 42.4419 -99.1464 268° West 416 479 36,000  Level Minneapolis Center
08:54PM 42.4367 -99.3008 267° West 413 475 36,000  Level Minneapolis Center
08:55PM 42.4308 -99.4578 267° West 416 479 36,000  Level Minneapolis Center
08:56PM 42.4253 -99.6128 267° West 415 478 36,000  Level Minneapolis Center
08:58PM 42.4178 -99.7981 267° West 413 475 36,000  Level Minneapolis Center
08:59PM 42.4111 -99.9994 268° West 415 478 36,000  Level Denver Center
09:00PM 42.4053 -100.1469 267° West 412 474 36,000  Level Denver Center
09:01PM 42.3986 -100.2953 267° West 413 475 36,000  Level Denver Center
09:02PM 42.3917 -100.4667 267° West 412 474 36,000  Level Denver Center
09:03PM 42.3850 -100.6150 267° West 411 473 36,000  Level Denver Center
09:04PM 42.3767 -100.7875 266° West 411 473 36,000  Level Denver Center
09:05PM 42.3706 -100.9375 267° West 416 479 36,000  Level Denver Center
09:06PM 42.3617 -101.1108 266° West 415 478 36,000  Level Denver Center
09:07PM 42.3556 -101.2583 267° West 414 476 36,000  Level Denver Center
09:08PM 42.3464 -101.4328 266° West 418 481 36,000  Level Denver Center
09:09PM 42.3372 -101.5831 265° West 418 481 36,000  Level Denver Center
09:10PM 42.3283 -101.7569 266° West 418 481 36,000  Level Denver Center
09:11PM 42.3211 -101.9136 266° West 417 480 36,000  Level Denver Center
09:12PM 42.3117 -102.0631 265° West 418 481 36,000  Level Denver Center
09:13PM 42.3011 -102.2386 265° West 418 481 36,000  Level Denver Center
09:14PM 42.2911 -102.3894 265° West 421 484 36,000  Level Denver Center
09:15PM 42.2833 -102.5389 266° West 419 482 36,000  Level Denver Center
09:16PM 42.2706 -102.7147 264° West 419 482 36,000  Level Denver Center
09:17PM 42.2614 -102.8642 265° West 418 481 36,000  Level Denver Center
09:18PM 42.2503 -103.0397 265° West 419 482 36,000  Level Denver Center
09:19PM 42.2400 -103.1908 265° West 423 487 36,000  Level Denver Center
09:20PM 42.2281 -103.3694 265° West 427 491 36,000  Level Denver Center
09:21PM 42.2172 -103.5225 265° West 428 493 36,000  Level Denver Center
09:22PM 42.2056 -103.6775 264° West 432 497 36,000  Level Denver Center
09:23PM 42.1928 -103.8564 265° West 429 494 36,000  Level Denver Center
09:24PM 42.1819 -104.0106 265° West 430 495 36,000  Level Denver Center
09:25PM 42.1678 -104.1897 264° West 429 494 36,000  Level Denver Center
09:26PM 42.1553 -104.3433 264° West 428 493 36,000  Level Denver Center
09:27PM 42.1439 -104.4967 264° West 427 491 36,000  Level Denver Center
09:29PM 42.1297 -104.6744 264° West 425 489 36,000  Level Denver Center
09:30PM 42.1175 -104.8289 264° West 429 494 36,000  Level Denver Center
09:31PM 42.1022 -105.0097 264° West 433 498 36,000  Level Denver Center
09:32PM 42.0917 -105.1378 264° West 431 496 36,000  Level Denver Center
09:33PM 42.0739 -105.3450 263° West 437 503 36,000  Level Denver Center
09:34PM 42.0608 -105.4986 264° West 433 498 36,000  Level Denver Center
09:35PM 42.0469 -105.6536 263° West 436 502 36,000  Level Denver Center
09:36PM 42.0375 -105.8358 266° West 439 505 36,000  Level Denver Center
09:37PM 42.0297 -105.9919 266° West 439 505 36,000  Level Denver Center
09:38PM 42.0208 -106.1747 266° West 438 504 36,000  Level Denver Center
09:39PM 42.0131 -106.3286 266° West 434 499 36,000  Level Denver Center
09:40PM 42.0014 -106.5072 265° West 431 496 36,000  Level Denver Center
09:41PM 41.9936 -106.6628 266° West 428 493 36,000  Level Denver Center
09:42PM 41.9858 -106.8147 266° West 429 494 36,000  Level Denver Center
09:43PM 41.9753 -106.9947 266° West 434 499 36,000  Level Denver Center
09:44PM 41.9689 -107.1214 266° West 430 495 36,000  Level Denver Center
09:45PM 41.9553 -107.3278 265° West 436 502 36,000  Level Denver Center
09:46PM 41.9453 -107.4822 265° West 436 502 36,000  Level Denver Center
09:47PM 41.9350 -107.6606 266° West 431 496 36,000  Level Denver Center
09:48PM 41.9244 -107.8158 265° West 435 501 36,000  Level Denver Center
09:49PM 41.9147 -107.9722 265° West 439 505 36,000  Level Denver Center
09:49PM 41.9147 -107.9722 265° West 435 501 36,000  Level Salt Lake Center
09:50PM 41.9022 -108.1553 265° West 441 507 36,000  Level Salt Lake Center
09:51PM 41.8917 -108.3086 265° West 437 503 36,000  Level Salt Lake Center
09:52PM 41.8786 -108.4894 265° West 436 502 36,000  Level Salt Lake Center
09:53PM 41.8669 -108.6442 264° West 437 503 36,000  Level Salt Lake Center
09:54PM 41.8536 -108.8264 264° West 442 509 36,000  Level Salt Lake Center
09:55PM 41.8417 -108.9819 264° West 441 507 36,000  Level Salt Lake Center
09:56PM 41.8303 -109.1350 264° West 437 503 36,000  Level Salt Lake Center
09:57PM 41.8153 -109.3125 264° West 435 501 36,000  Level Salt Lake Center
09:58PM 41.8036 -109.4656 264° West 434 499 36,000  Level Salt Lake Center
09:59PM 41.7881 -109.6436 263° West 434 499 36,000  Level Salt Lake Center
10:00PM 41.7756 -109.7972 264° West 435 501 36,000  Level Salt Lake Center
10:01PM 41.7594 -109.9786 263° West 439 505 36,000  Level Salt Lake Center
10:02PM 41.7469 -110.1325 264° West 437 503 36,000  Level Salt Lake Center
10:03PM 41.7306 -110.3117 263° West 435 501 36,000  Level Salt Lake Center
10:04PM 41.7175 -110.4650 264° West 434 499 36,000  Level Salt Lake Center
10:05PM 41.7039 -110.6164 263° West 430 495 36,000  Level Salt Lake Center
10:06PM 41.6869 -110.7942 263° West 432 497 36,000  Level Salt Lake Center
10:08PM 41.6725 -110.9497 263° West 430 495 36,000  Level Salt Lake Center
10:09PM 41.6572 -111.1078 263° West 430 495 36,000  Level Salt Lake Center
10:10PM 41.6417 -111.2667 263° West 433 498 36,000  Level Salt Lake Center
10:11PM 41.6261 -111.4236 262° West 428 493 36,000  Level Salt Lake Center
10:12PM 41.6106 -111.5836 263° West 437 503 36,000  Level Salt Lake Center
10:13PM 41.5914 -111.7744 262° West 436 502 36,000  Level Salt Lake Center
10:14PM 41.5756 -111.9336 262° West 435 501 36,000  Level Salt Lake Center
10:15PM 41.5594 -112.0925 262° West 436 502 36,000  Level Salt Lake Center
10:16PM 41.5425 -112.2508 262° West 436 502 36,000  Level Salt Lake Center
10:17PM 41.5258 -112.4072 262° West 430 495 36,000  Level Salt Lake Center
10:18PM 41.5086 -112.5664 262° West 433 498 36,000  Level Salt Lake Center
10:19PM 41.4917 -112.7239 262° West 431 496 36,000  Level Salt Lake Center
10:20PM 41.4706 -112.9139 262° West 432 497 36,000  Level Salt Lake Center
10:21PM 41.4453 -113.0708 258° West 433 498 36,000  Level Salt Lake Center
10:22PM 41.4150 -113.2250 255° West 433 498 36,000  Level Salt Lake Center
10:23PM 41.3819 -113.3797 254° West 434 499 36,000  Level Salt Lake Center
10:24PM 41.3511 -113.5350 255° West 435 501 36,000  Level Salt Lake Center
10:25PM 41.3194 -113.6886 255° West 433 498 36,000  Level Salt Lake Center
10:26PM 41.2864 -113.8442 254° West 437 503 36,000  Level Salt Lake Center
10:27PM 41.2533 -113.9986 254° West 436 502 36,000  Level Salt Lake Center
10:28PM 41.2147 -114.1844 255° West 436 502 36,000  Level Salt Lake Center
10:29PM 41.1814 -114.3375 254° West 434 499 36,000  Level Salt Lake Center
10:30PM 41.1481 -114.4922 254° West 436 502 36,000  Level Salt Lake Center
10:31PM 41.1153 -114.6469 254° West 436 502 36,000  Level Salt Lake Center
10:32PM 41.0817 -114.8006 254° West 436 502 36,000  Level Salt Lake Center
10:33PM 41.0464 -114.9633 254° West 438 504 36,000  Level Salt Lake Center
10:34PM 41.0114 -115.1106 253° West 438 504 36,000  Level Salt Lake Center
10:35PM 40.9731 -115.2811 253° West 434 499 36,000  Level Salt Lake Center
10:36PM 40.9431 -115.4278 255° West 432 497 36,000  Level Salt Lake Center
10:37PM 40.9047 -115.5989 254° West 434 499 36,000  Level Salt Lake Center
10:38PM 40.8717 -115.7439 253° West 432 497 36,000  Level Salt Lake Center
10:39PM 40.8381 -115.8889 253° West 432 497 36,000  Level Salt Lake Center
10:40PM 40.7994 -116.0553 253° West 428 493 36,000  Level Salt Lake Center
10:41PM 40.7658 -116.1994 253° West 428 493 36,000  Level Salt Lake Center
10:42PM 40.7261 -116.3692 253° West 434 499 36,000  Level Salt Lake Center
10:43PM 40.6917 -116.5125 252° West 432 497 36,000  Level Salt Lake Center
10:44PM 40.6522 -116.6811 253° West 432 497 36,000  Level Salt Lake Center
10:45PM 40.6186 -116.8225 253° West 430 495 36,000  Level Salt Lake Center
10:46PM 40.5789 -116.9869 252° West 428 493 36,000  Level Salt Lake Center
10:47PM 40.5453 -117.1297 253° West 432 497 36,000  Level Salt Lake Center
10:48PM 40.5044 -117.2950 252° West 431 496 36,000  Level Salt Lake Center
10:50PM 40.4692 -117.4358 252° West 427 491 36,000  Level Salt Lake Center
10:51PM 40.4333 -117.5786 252° West 430 495 36,000  Level Salt Lake Center
10:52PM 40.3922 -117.7469 252° West 434 499 36,000  Level Salt Lake Center
10:53PM 40.3561 -117.8903 252° West 435 501 36,000  Level Salt Lake Center
10:54PM 40.3136 -118.0564 251° West 431 496 36,000  Level Salt Lake Center
10:55PM 40.2825 -118.1786 252° West 422 486 36,000 -1,440 Level Oakland Center
10:56PM 40.2378 -118.3594 252° West 432 497 33,100 -2,880 Descending Oakland Center
10:57PM 40.1975 -118.5164 251° West 453 521 30,200 -1,800 Descending Oakland Center
10:58PM 40.1586 -118.6653 251° West 437 503 29,500 -1,320 Descending Oakland Center
10:59PM 40.1222 -118.8117 252° West 426 490 27,500 -2,220 Descending Oakland Center
11:00PM 40.0850 -118.9492 251° West 409 471 25,000 -1,980 Descending Oakland Center
11:01PM 40.0250 -119.0631 235° Southwest 384 442 23,500 -1,260 Descending Oakland Center
11:02PM 39.9311 -119.1317 209° Southwest 389 448 22,500 -1,020 Descending Oakland Center
11:03PM 39.8386 -119.1983 209° Southwest 382 440 21,500 -1,080 Descending Oakland Center
11:04PM 39.7306 -119.2753 209° Southwest 371 427 20,300 -1,080 Descending Oakland Center
11:05PM 39.6431 -119.3392 209° Southwest 365 420 19,300 -960 Descending Oakland Center
11:06PM 39.5567 -119.4000 209° Southwest 357 411 18,400 -960 Descending Oakland Center
11:07PM 39.4767 -119.4586 209° Southwest 334 384 17,400 -1,020 Descending Oakland Center
11:08PM 39.3953 -119.5258 213° Southwest 350 403 16,400 -1,020 Descending Oakland Center
11:09PM 39.3119 -119.5811 207° Southwest 336 387 15,400 -1,560 Descending Oakland Center
11:10PM 39.2292 -119.6369 208° Southwest 336 387 13,300 -2,100 Descending Oakland Center
11:11PM 39.2122 -119.7447 259° West 331 381 11,100 -1,860 Descending Oakland Center
11:12PM 39.2875 -119.7828 339° North 324 373 9,600 -1,500 Descending Oakland Center